createdAt,value
2022-12-08T00:02:32.269Z,100409.44
2022-12-08T00:05:53.849Z,100387.81
2022-12-08T00:09:14.781Z,100415.28
2022-12-08T00:12:17.447Z,100398.72
2022-12-08T00:15:19.735Z,100391.97
2022-12-08T00:18:22.268Z,100403.69
2022-12-08T00:21:24.579Z,100407.44
2022-12-08T00:24:31.325Z,100376.34
2022-12-08T00:27:33.598Z,100411.69
2022-12-08T00:30:39.300Z,100412.72
2022-12-08T00:33:41.553Z,100416.09
2022-12-08T00:36:44.332Z,100408.78
2022-12-08T00:39:46.548Z,100401.44
2022-12-08T00:42:49.115Z,100418.34
2022-12-08T00:45:51.407Z,100420.94
2022-12-08T00:48:53.995Z,100403.44
2022-12-08T00:51:56.639Z,100423.44
2022-12-08T00:54:59.199Z,100426.09
2022-12-08T00:58:01.585Z,100402.78
2022-12-08T01:01:14.236Z,100424.50
2022-12-08T01:04:18.332Z,100424.84
2022-12-08T01:07:20.904Z,100419.50
2022-12-08T01:10:23.153Z,100425.00
2022-12-08T01:13:25.627Z,100422.94
2022-12-08T01:16:30.465Z,100422.84
2022-12-08T01:19:33.233Z,100427.75
2022-12-08T01:22:36.170Z,100418.44
2022-12-08T01:25:38.831Z,100400.38
2022-12-08T01:28:42.331Z,100420.34
2022-12-08T01:31:45.054Z,100410.78
2022-12-08T01:34:47.322Z,100418.53
2022-12-08T01:37:50.722Z,100424.78
2022-12-08T01:40:52.972Z,100398.47
2022-12-08T01:44:23.685Z,100402.19
2022-12-08T01:47:30.567Z,100416.25
2022-12-08T01:50:34.050Z,100407.28
2022-12-08T01:53:36.957Z,100391.59
2022-12-08T01:56:55.234Z,100412.31
2022-12-08T02:00:07.092Z,100386.59
2022-12-08T02:03:16.152Z,100411.16
2022-12-08T02:06:19.656Z,100404.22
2022-12-08T02:09:22.485Z,100387.34
2022-12-08T02:12:24.894Z,100399.75
2022-12-08T02:16:02.363Z,100398.00
2022-12-08T02:19:32.364Z,100398.75
2022-12-08T02:22:53.851Z,100392.59
2022-12-08T02:26:23.895Z,100390.16
2022-12-08T02:30:02.546Z,100378.47
2022-12-08T02:33:26.521Z,100371.12
2022-12-08T02:36:51.661Z,100405.66
2022-12-08T02:39:56.929Z,100392.53
2022-12-08T02:43:16.930Z,100389.81
2022-12-08T02:46:24.749Z,100388.25
2022-12-08T02:49:33.151Z,100364.34
2022-12-08T02:52:40.701Z,100377.34
2022-12-08T02:56:04.874Z,100370.22
2022-12-08T02:59:32.402Z,100375.28
2022-12-08T03:03:03.926Z,100369.31
2022-12-08T03:06:37.027Z,100368.97
2022-12-08T03:09:50.123Z,100366.59
2022-12-08T03:13:15.794Z,100339.41
2022-12-08T03:16:25.641Z,100364.88
2022-12-08T03:19:33.840Z,100368.72
2022-12-08T03:22:39.295Z,100363.97
2022-12-08T03:25:49.531Z,100349.72
2022-12-08T03:28:52.083Z,100350.72
2022-12-08T03:32:01.236Z,100373.28
2022-12-08T03:35:09.240Z,100371.28
2022-12-08T03:38:15.584Z,100340.41
2022-12-08T03:41:18.538Z,100354.25
2022-12-08T03:44:20.742Z,100368.97
2022-12-08T03:47:23.502Z,100368.16
2022-12-08T03:50:26.303Z,100369.91
2022-12-08T03:53:28.845Z,100352.09
2022-12-08T03:56:36.971Z,100365.13
2022-12-08T03:59:39.668Z,100352.22
2022-12-08T04:02:42.048Z,100361.12
2022-12-08T04:05:44.590Z,100354.81
2022-12-08T04:08:46.973Z,100362.56
2022-12-08T04:11:52.297Z,100334.56
2022-12-08T04:14:54.536Z,100356.94
2022-12-08T04:17:57.082Z,100349.69
2022-12-08T04:20:59.304Z,100327.91
2022-12-08T04:24:02.572Z,100327.97
2022-12-08T04:27:04.866Z,100343.22
2022-12-08T04:30:08.282Z,100347.28
2022-12-08T04:33:10.887Z,100343.84
2022-12-08T04:36:13.422Z,100343.75
2022-12-08T04:39:15.683Z,100347.31
2022-12-08T04:42:18.234Z,100336.66
2022-12-08T04:45:20.514Z,100347.31
2022-12-08T04:48:23.173Z,100350.62
2022-12-08T04:51:27.328Z,100341.81
2022-12-08T04:54:30.421Z,100330.34
2022-12-08T04:57:32.769Z,100338.66
2022-12-08T05:00:35.243Z,100337.34
2022-12-08T05:03:37.734Z,100342.47
2022-12-08T05:06:40.244Z,100320.38
2022-12-08T05:09:42.604Z,100339.66
2022-12-08T05:12:45.129Z,100346.31
2022-12-08T05:15:47.447Z,100343.81
2022-12-08T05:18:50.025Z,100344.03
2022-12-08T05:21:52.261Z,100326.84
2022-12-08T05:24:54.866Z,100351.22
2022-12-08T05:28:17.472Z,100350.22
2022-12-08T05:31:19.758Z,100346.50
2022-12-08T05:34:22.147Z,100312.56
2022-12-08T05:37:24.700Z,100335.72
2022-12-08T05:40:27.152Z,100340.53
2022-12-08T05:43:29.795Z,100337.28
2022-12-08T05:46:32.235Z,100295.94
2022-12-08T05:49:34.795Z,100315.03
2022-12-08T05:52:37.134Z,100311.84
2022-12-08T05:55:39.706Z,100318.59
2022-12-08T05:58:42.414Z,100323.34
2022-12-08T06:01:45.002Z,100340.12
2022-12-08T06:04:47.563Z,100311.09
2022-12-08T06:07:49.902Z,100330.81
2022-12-08T06:10:52.519Z,100333.62
2022-12-08T06:13:56.666Z,100339.72
2022-12-08T06:16:59.215Z,100344.28
2022-12-08T06:20:02.115Z,100338.34
2022-12-08T06:23:04.894Z,100327.28
2022-12-08T06:26:13.412Z,100347.62
2022-12-08T06:29:15.956Z,100331.06
2022-12-08T06:32:20.808Z,100341.22
2022-12-08T06:35:26.998Z,100360.50
2022-12-08T06:38:29.856Z,100336.56
2022-12-08T06:41:32.442Z,100352.03
2022-12-08T06:44:34.707Z,100358.84
2022-12-08T06:47:37.408Z,100354.69
2022-12-08T06:50:39.697Z,100337.38
2022-12-08T06:53:43.293Z,100354.69
2022-12-08T06:56:45.568Z,100340.03
2022-12-08T06:59:48.138Z,100342.22
2022-12-08T07:02:50.498Z,100343.03
2022-12-08T07:06:03.243Z,100361.34
2022-12-08T07:09:06.463Z,100359.69
2022-12-08T07:12:08.988Z,100364.72
2022-12-08T07:15:11.503Z,100367.25
2022-12-08T07:18:14.090Z,100361.03
2022-12-08T07:21:17.568Z,100334.56
2022-12-08T07:24:20.173Z,100354.50
2022-12-08T07:27:22.463Z,100363.69
2022-12-08T07:30:25.024Z,100359.75
2022-12-08T07:33:27.694Z,100356.50
2022-12-08T07:36:30.310Z,100357.09
2022-12-08T07:39:32.510Z,100326.06
2022-12-08T07:42:35.437Z,100344.56
2022-12-08T07:45:37.675Z,100346.16
2022-12-08T07:48:40.740Z,100332.16
2022-12-08T07:51:42.954Z,100343.72
2022-12-08T07:54:45.586Z,100325.25
2022-12-08T07:57:47.838Z,100325.31
2022-12-08T08:00:50.489Z,100340.72
2022-12-08T08:03:54.850Z,100342.00
2022-12-08T08:06:57.337Z,100344.59
2022-12-08T08:10:00.242Z,100353.72
2022-12-08T08:13:02.792Z,100352.53
2022-12-08T08:16:10.297Z,100351.72
2022-12-08T08:19:12.656Z,100350.56
2022-12-08T08:22:15.285Z,100329.78
2022-12-08T08:25:18.959Z,100348.87
2022-12-08T08:28:21.524Z,100325.63
2022-12-08T08:31:27.268Z,100343.66
2022-12-08T08:34:29.983Z,100341.50
2022-12-08T08:37:32.359Z,100324.84
2022-12-08T08:40:34.942Z,100322.44
2022-12-08T08:43:38.678Z,100327.44
2022-12-08T08:46:41.823Z,100347.50
2022-12-08T08:49:44.123Z,100343.53
2022-12-08T08:52:46.790Z,100320.38
2022-12-08T08:55:50.158Z,100345.41
2022-12-08T08:58:53.503Z,100327.75
2022-12-08T09:01:56.278Z,100344.53
2022-12-08T09:04:59.737Z,100334.69
2022-12-08T09:08:02.229Z,100324.91
2022-12-08T09:11:05.028Z,100329.84
2022-12-08T09:14:07.472Z,100309.50
2022-12-08T09:17:10.082Z,100338.91
2022-12-08T09:20:12.611Z,100329.25
2022-12-08T09:23:15.176Z,100305.09
2022-12-08T09:26:17.624Z,100308.97
2022-12-08T09:29:20.278Z,100312.34
2022-12-08T09:32:22.656Z,100326.78
2022-12-08T09:35:25.252Z,100314.94
2022-12-08T09:38:27.560Z,100318.84
2022-12-08T09:41:58.371Z,100312.25
2022-12-08T09:45:12.107Z,100314.06
2022-12-08T09:48:37.217Z,100293.75
2022-12-08T09:51:42.395Z,100289.41
2022-12-08T09:54:45.321Z,100274.47
2022-12-08T09:57:57.914Z,100275.06
2022-12-08T10:01:00.522Z,100264.44
2022-12-08T10:04:03.242Z,100265.66
2022-12-08T10:07:30.897Z,100256.63
2022-12-08T10:10:57.965Z,100282.16
2022-12-08T10:14:33.979Z,100268.66
2022-12-08T10:17:42.606Z,100281.59
2022-12-08T10:20:48.145Z,100280.28
2022-12-08T10:24:02.071Z,100287.72
2022-12-08T10:27:08.203Z,100276.53
2022-12-08T10:30:16.584Z,100262.22
2022-12-08T10:33:22.060Z,100246.50
2022-12-08T10:36:54.381Z,100233.25
2022-12-08T10:40:02.869Z,100239.22
2022-12-08T10:43:07.045Z,100243.16
2022-12-08T10:46:27.464Z,100226.13
2022-12-08T10:49:32.438Z,100215.00
2022-12-08T10:52:41.117Z,100220.06
2022-12-08T10:55:46.441Z,100219.03
2022-12-08T10:58:49.237Z,100211.81
2022-12-08T11:01:54.583Z,100206.81
2022-12-08T11:05:00.227Z,100198.31
2022-12-08T11:08:04.893Z,100188.38
2022-12-08T11:11:07.614Z,100187.53
2022-12-08T11:14:18.382Z,100190.78
2022-12-08T11:17:25.201Z,100163.78
2022-12-08T11:20:28.313Z,100183.41
2022-12-08T11:23:31.160Z,100180.13
2022-12-08T11:26:37.011Z,100173.97
2022-12-08T11:29:46.382Z,100165.72
2022-12-08T11:32:52.999Z,100162.16
2022-12-08T11:36:09.066Z,100150.78
2022-12-08T11:39:13.208Z,100141.19
2022-12-08T11:42:22.044Z,100116.88
2022-12-08T11:45:30.088Z,100115.00
2022-12-08T11:48:37.010Z,100095.41
2022-12-08T11:51:46.986Z,100100.91
2022-12-08T11:54:58.325Z,100088.22
2022-12-08T11:58:18.820Z,100107.81
2022-12-08T12:01:26.149Z,100110.34
2022-12-08T12:04:37.128Z,100105.37
2022-12-08T12:07:45.478Z,100098.78
2022-12-08T12:11:10.305Z,100104.28
2022-12-08T12:14:31.835Z,100101.31
2022-12-08T12:18:05.141Z,100105.44
2022-12-08T12:21:16.228Z,100085.00
2022-12-08T12:24:50.310Z,100096.62
2022-12-08T12:27:59.399Z,100101.53
2022-12-08T12:31:08.537Z,100103.47
2022-12-08T12:34:28.254Z,100108.72
2022-12-08T12:37:45.833Z,100103.19
2022-12-08T12:40:48.681Z,100102.31
2022-12-08T12:44:08.293Z,100096.50
2022-12-08T12:47:13.179Z,100111.97
2022-12-08T12:50:45.905Z,100080.28
2022-12-08T12:53:50.093Z,100108.09
2022-12-08T12:56:57.124Z,100083.28
2022-12-08T12:59:59.331Z,100086.12
2022-12-08T13:03:02.022Z,100078.69
2022-12-08T13:06:06.207Z,100086.97
2022-12-08T13:09:31.760Z,100081.75
2022-12-08T13:12:34.110Z,100086.41
2022-12-08T13:15:48.521Z,100066.81
2022-12-08T13:18:56.207Z,100061.31
2022-12-08T13:22:00.226Z,100057.69
2022-12-08T13:25:39.759Z,100072.03
2022-12-08T13:29:01.412Z,100072.81
2022-12-08T13:32:07.207Z,100070.34
2022-12-08T13:35:11.980Z,100053.81
2022-12-08T13:38:19.380Z,100075.84
2022-12-08T13:41:34.645Z,100076.66
2022-12-08T13:45:58.909Z,100080.81
2022-12-08T13:59:19.450Z,100078.03
2022-12-08T14:02:49.480Z,100077.50
2022-12-08T14:09:21.166Z,100073.06
2022-12-08T14:12:27.123Z,100056.47
2022-12-08T14:15:37.232Z,100055.91
2022-12-08T14:18:41.367Z,100071.09
2022-12-08T14:21:51.212Z,100075.47
2022-12-08T14:24:54.804Z,100057.00
2022-12-08T14:28:01.254Z,100072.72
2022-12-08T14:31:04.688Z,100070.59
2022-12-08T14:34:07.146Z,100081.00
2022-12-08T14:37:13.017Z,100066.59
2022-12-08T14:40:23.032Z,100056.66
2022-12-08T14:43:31.106Z,100079.31
2022-12-08T14:46:33.942Z,100077.59
2022-12-08T14:49:39.127Z,100088.09
2022-12-08T14:52:44.420Z,100089.97
2022-12-08T14:55:48.930Z,100076.47
2022-12-08T14:59:05.830Z,100080.03
2022-12-08T15:02:24.306Z,100078.38
2022-12-08T15:05:30.887Z,100070.94
2022-12-08T15:08:35.183Z,100072.88
2022-12-08T15:11:37.456Z,100048.88
2022-12-08T15:14:57.814Z,100069.34
2022-12-08T15:18:20.871Z,100043.91
2022-12-08T15:21:30.808Z,100058.84
2022-12-08T15:24:35.585Z,100052.50
2022-12-08T15:27:49.623Z,100051.69
2022-12-08T15:30:53.765Z,100064.13
2022-12-08T15:33:56.408Z,100048.38
2022-12-08T15:36:58.727Z,100063.03
2022-12-08T15:40:01.232Z,100058.94
2022-12-08T15:43:03.636Z,100059.50
2022-12-08T15:46:06.595Z,100046.50
2022-12-08T15:49:17.765Z,100045.34
2022-12-08T15:52:23.315Z,100044.53
2022-12-08T15:55:25.600Z,100031.28
2022-12-08T16:01:52.161Z,100011.13
2022-12-08T16:12:09.554Z,100034.28
2022-12-08T16:18:39.489Z,100039.31
2022-12-08T16:25:21.635Z,100057.13
2022-12-08T16:28:52.966Z,100021.06
2022-12-08T16:31:47.569Z,100027.16
2022-12-08T16:34:50.649Z,100031.84
2022-12-08T16:37:55.653Z,100033.00
2022-12-08T16:41:16.374Z,100023.34
2022-12-08T16:44:18.898Z,100009.19
2022-12-08T16:47:21.194Z,100029.09
2022-12-08T16:50:44.864Z,100014.19
2022-12-08T16:53:47.139Z,100034.53
2022-12-08T16:56:49.715Z,100039.28
2022-12-08T16:59:51.962Z,100040.09
2022-12-08T17:02:55.373Z,100036.22
2022-12-08T17:05:57.640Z,100028.97
2022-12-08T17:09:00.277Z,100022.59
2022-12-08T17:12:04.189Z,100028.62
2022-12-08T17:15:09.249Z,100025.38
2022-12-08T17:18:12.064Z,100039.44
2022-12-08T17:21:17.021Z,100029.50
2022-12-08T17:24:22.215Z,100036.13
2022-12-08T17:27:25.425Z,100019.56
2022-12-08T17:30:27.719Z,100047.16
2022-12-08T17:33:30.233Z,100045.25
2022-12-08T17:36:32.610Z,100024.00
2022-12-08T17:39:35.269Z,100020.19
2022-12-08T17:42:38.684Z,100046.09
2022-12-08T17:45:46.882Z,100032.81
2022-12-08T17:48:49.446Z,100010.47
2022-12-08T17:51:54.554Z,100005.25
2022-12-08T17:54:56.835Z,100025.12
2022-12-08T17:57:59.398Z,100023.50
2022-12-08T18:01:08.110Z,100027.69
2022-12-08T18:04:11.870Z,100019.44
2022-12-08T18:07:14.152Z,100026.59
2022-12-08T18:10:18.379Z,100029.31
2022-12-08T18:13:20.690Z,100029.56
2022-12-08T18:16:25.844Z,100020.75
2022-12-08T18:19:28.202Z,100004.50
2022-12-08T18:22:30.710Z,100011.38
2022-12-08T18:25:32.999Z,100023.25
2022-12-08T18:28:36.633Z,100019.41
2022-12-08T18:31:38.953Z,100019.13
2022-12-08T18:34:41.796Z,99998.41
2022-12-08T18:37:44.271Z,100004.50
2022-12-08T18:40:46.829Z,100007.47
2022-12-08T18:43:49.039Z,100007.47
2022-12-08T18:46:51.576Z,100029.63
2022-12-08T18:49:55.084Z,100005.38
2022-12-08T18:52:57.752Z,100026.87
2022-12-08T18:56:00.057Z,100025.75
2022-12-08T18:59:08.535Z,100031.84
2022-12-08T19:02:12.425Z,100018.62
2022-12-08T19:05:15.282Z,99998.72
2022-12-08T19:08:18.279Z,99994.84
2022-12-08T19:11:26.739Z,100016.13
2022-12-08T19:14:30.465Z,100026.87
2022-12-08T19:17:33.186Z,99992.94
2022-12-08T19:20:35.387Z,100011.16
2022-12-08T19:23:38.930Z,100024.13
2022-12-08T19:26:41.462Z,100023.59
2022-12-08T19:29:44.051Z,99998.22
2022-12-08T19:32:46.481Z,100012.75
2022-12-08T19:35:52.733Z,100030.69
2022-12-08T19:39:15.664Z,100012.47
2022-12-08T19:42:39.888Z,100023.50
2022-12-08T19:45:42.254Z,100025.12
2022-12-08T19:48:45.012Z,100027.59
2022-12-08T19:51:47.268Z,100020.16
2022-12-08T19:54:49.874Z,100015.19
2022-12-08T19:57:52.738Z,100022.12
2022-12-08T20:00:55.559Z,100008.88
2022-12-08T20:03:58.133Z,99989.88
2022-12-08T20:07:00.624Z,100008.38
2022-12-08T20:10:09.849Z,100013.09
2022-12-08T20:13:30.989Z,100006.97
2022-12-08T20:16:34.107Z,99980.53
2022-12-08T20:19:36.603Z,99984.66
2022-12-08T20:22:39.301Z,99979.41
2022-12-08T20:25:44.059Z,99992.38
2022-12-08T20:28:46.946Z,99975.47
2022-12-08T20:31:49.378Z,99978.56
2022-12-08T20:34:52.056Z,99989.03
2022-12-08T20:37:54.384Z,99984.88
2022-12-08T20:40:58.184Z,99988.69
2022-12-08T20:44:00.458Z,99998.94
2022-12-08T20:47:03.051Z,100006.84
2022-12-08T20:50:07.037Z,99986.37
2022-12-08T20:53:09.861Z,99982.56
2022-12-08T20:56:17.473Z,99998.00
2022-12-08T20:59:20.526Z,100017.25
2022-12-08T21:02:22.958Z,100021.62
2022-12-08T21:05:25.894Z,100005.06
2022-12-08T21:08:28.522Z,100023.87
2022-12-08T21:11:31.473Z,100015.97
2022-12-08T21:14:34.008Z,100007.41
2022-12-08T21:17:36.732Z,100018.44
2022-12-08T21:20:39.134Z,100022.34
2022-12-08T21:23:42.850Z,100001.22
2022-12-08T21:26:45.298Z,99999.28
2022-12-08T21:29:48.022Z,100021.09
2022-12-08T21:32:50.611Z,100024.34
2022-12-08T21:36:02.198Z,100012.81
2022-12-08T21:39:11.268Z,99988.88
2022-12-08T21:42:34.462Z,99992.22
2022-12-08T21:45:37.184Z,99968.22
2022-12-08T21:48:39.811Z,99965.81
2022-12-08T21:51:42.810Z,99984.25
2022-12-08T21:54:45.542Z,99981.50
2022-12-08T21:57:47.887Z,99985.69
2022-12-08T22:00:50.565Z,99979.28
2022-12-08T22:03:53.748Z,99994.41
2022-12-08T22:06:56.392Z,99979.78
2022-12-08T22:09:59.345Z,99995.78
2022-12-08T22:13:01.782Z,99991.94
2022-12-08T22:16:07.594Z,100000.22
2022-12-08T22:19:11.043Z,99977.94
2022-12-08T22:22:13.716Z,99992.41
2022-12-08T22:25:16.157Z,99963.69
2022-12-08T22:28:18.697Z,99973.72
2022-12-08T22:31:21.231Z,99994.63
2022-12-08T22:34:23.927Z,100005.16
2022-12-08T22:37:26.510Z,100009.78
2022-12-08T22:40:29.468Z,99998.28
2022-12-08T22:43:32.658Z,100003.22
2022-12-08T22:46:35.886Z,99995.22
2022-12-08T22:49:38.426Z,99969.56
2022-12-08T22:52:41.098Z,99974.84
2022-12-08T22:55:44.330Z,99989.69
2022-12-08T22:58:47.424Z,100002.94
2022-12-08T23:01:49.933Z,100001.34
2022-12-08T23:04:56.356Z,99975.66
2022-12-08T23:07:59.109Z,99994.37
2022-12-08T23:11:01.731Z,100001.84
2022-12-08T23:14:04.069Z,99990.84
2022-12-08T23:17:07.005Z,99990.25
2022-12-08T23:20:10.620Z,99987.53
2022-12-08T23:23:13.664Z,99975.63
2022-12-08T23:26:22.946Z,99992.22
2022-12-08T23:29:25.727Z,99990.88
2022-12-08T23:32:28.280Z,99963.25
2022-12-08T23:35:31.317Z,99986.66
2022-12-08T23:38:34.024Z,99985.31
2022-12-08T23:41:37.065Z,99995.72
2022-12-08T23:44:39.588Z,99996.84
2022-12-08T23:47:42.257Z,99987.50
2022-12-08T23:50:44.769Z,99985.91
2022-12-08T23:53:47.457Z,99972.94
2022-12-08T23:56:49.750Z,99971.59
2022-12-08T23:59:52.463Z,99978.72
